createdAt,value
2018-06-03T00:01:59.679Z,99100.02
2018-06-03T00:04:27.169Z,99103.69
2018-06-03T00:06:54.867Z,99099.64
2018-06-03T00:09:22.444Z,99092.53
2018-06-03T00:11:50.010Z,99092.61
2018-06-03T00:14:17.481Z,99098.80
2018-06-03T00:16:46.572Z,99096.98
2018-06-03T00:19:14.237Z,99095.36
2018-06-03T00:21:43.562Z,99087.77
2018-06-03T00:24:11.187Z,99096.77
2018-06-03T00:26:38.735Z,99095.28
2018-06-03T00:29:06.202Z,99089.05
2018-06-03T00:31:33.721Z,99090.56
2018-06-03T00:34:01.237Z,99085.63
2018-06-03T00:36:40.749Z,99096.84
2018-06-03T00:39:08.525Z,99095.50
2018-06-03T00:41:36.019Z,99094.71
2018-06-03T00:44:03.498Z,99093.75
2018-06-03T00:46:31.115Z,99091.57
2018-06-03T00:48:58.627Z,99090.23
2018-06-03T00:51:26.098Z,99095.67
2018-06-03T00:53:53.654Z,99094.09
2018-06-03T00:56:33.223Z,99095.22
2018-06-03T00:59:00.723Z,99095.06
2018-06-03T01:01:28.358Z,99095.02
2018-06-03T01:03:55.850Z,99094.36
2018-06-03T01:06:23.323Z,99092.12
2018-06-03T01:08:50.821Z,99088.46
2018-06-03T01:11:18.301Z,99087.41
2018-06-03T01:13:45.894Z,99084.72
2018-06-03T01:16:13.471Z,99089.17
2018-06-03T01:18:41.011Z,99088.04
2018-06-03T01:21:08.595Z,99084.86
2018-06-03T01:23:36.166Z,99083.70
2018-06-03T01:26:03.638Z,99084.45
2018-06-03T01:28:31.244Z,99075.81
2018-06-03T01:30:58.938Z,99077.94
2018-06-03T01:33:26.534Z,99075.77
2018-06-03T01:35:54.022Z,99077.58
2018-06-03T01:38:21.518Z,99074.24
2018-06-03T01:40:49.035Z,99071.39
2018-06-03T01:43:16.631Z,99070.97
2018-06-03T01:45:44.154Z,99068.23
2018-06-03T01:48:11.677Z,99074.17
2018-06-03T01:50:39.174Z,99072.25
2018-06-03T01:53:06.684Z,99069.09
2018-06-03T01:55:34.339Z,99064.89
2018-06-03T01:58:02.022Z,99069.90
2018-06-03T02:00:29.620Z,99064.37
2018-06-03T02:02:57.108Z,99054.98
2018-06-03T02:05:24.643Z,99061.67
2018-06-03T02:07:52.139Z,99066.95
2018-06-03T02:10:19.644Z,99066.13
2018-06-03T02:12:47.224Z,99063.73
2018-06-03T02:15:14.696Z,99068.73
2018-06-03T02:17:42.186Z,99079.39
2018-06-03T02:20:09.820Z,99077.61
2018-06-03T02:22:37.420Z,99077.02
2018-06-03T02:25:04.889Z,99073.56
2018-06-03T02:27:32.396Z,99073.48
2018-06-03T02:30:00.237Z,99068.38
2018-06-03T02:32:27.763Z,99064.37
2018-06-03T02:34:55.236Z,99059.66
2018-06-03T02:37:22.714Z,99070.41
2018-06-03T02:39:50.208Z,99068.59
2018-06-03T02:42:17.687Z,99061.46
2018-06-03T02:44:45.239Z,99063.70
2018-06-03T02:47:12.803Z,99066.27
2018-06-03T02:49:40.322Z,99065.56
2018-06-03T02:52:07.841Z,99059.33
2018-06-03T02:54:35.376Z,99059.87
2018-06-03T02:57:02.933Z,99063.99
2018-06-03T02:59:30.437Z,99067.58
2018-06-03T03:01:57.911Z,99064.58
2018-06-03T03:04:25.409Z,99061.89
2018-06-03T03:06:52.887Z,99068.27
2018-06-03T03:09:20.390Z,99067.10
2018-06-03T03:11:47.979Z,99081.28
2018-06-03T03:14:15.615Z,99079.26
2018-06-03T03:16:43.193Z,99081.50
2018-06-03T03:19:10.760Z,99078.23
2018-06-03T03:21:38.295Z,99081.47
2018-06-03T03:24:05.845Z,99080.14
2018-06-03T03:26:33.319Z,99088.95
2018-06-03T03:29:00.823Z,99079.56
2018-06-03T03:31:28.299Z,99079.40
2018-06-03T03:33:55.791Z,99085.95
2018-06-03T03:36:23.433Z,99087.26
2018-06-03T03:38:50.932Z,99093.66
2018-06-03T03:41:18.627Z,99089.07
2018-06-03T03:43:46.137Z,99094.53
2018-06-03T03:46:13.667Z,99090.52
2018-06-03T03:48:41.254Z,99089.10
2018-06-03T03:51:08.735Z,99094.58
2018-06-03T03:53:36.262Z,99094.47
2018-06-03T03:56:03.732Z,99094.94
2018-06-03T03:58:31.232Z,99084.57
2018-06-03T04:00:58.723Z,99084.40
2018-06-03T04:03:26.218Z,99091.39
2018-06-03T04:05:53.687Z,99093.94
2018-06-03T04:08:21.199Z,99085.95
2018-06-03T04:10:48.755Z,99093.26
2018-06-03T04:13:16.320Z,99095.47
2018-06-03T04:15:43.794Z,99090.06
2018-06-03T04:18:11.342Z,99087.16
2018-06-03T04:20:38.895Z,99089.10
2018-06-03T04:23:06.846Z,99089.08
2018-06-03T04:25:34.318Z,99095.60
2018-06-03T04:28:01.798Z,99090.21
2018-06-03T04:30:29.286Z,99081.91
2018-06-03T04:32:58.506Z,99080.88
2018-06-03T04:35:26.306Z,99091.48
2018-06-03T04:37:53.771Z,99090.32
2018-06-03T04:40:21.259Z,99086.53
2018-06-03T04:42:48.731Z,99088.14
2018-06-03T04:45:16.223Z,99090.07
2018-06-03T04:47:43.695Z,99089.12
2018-06-03T04:50:11.214Z,99096.27
2018-06-03T04:52:38.677Z,99096.08
2018-06-03T04:55:06.197Z,99088.70
2018-06-03T04:57:33.775Z,99092.91
2018-06-03T05:00:01.372Z,99092.41
2018-06-03T05:02:28.852Z,99094.83
2018-06-03T05:04:56.359Z,99092.17
2018-06-03T05:07:24.067Z,99087.94
2018-06-03T05:09:51.587Z,99093.41
2018-06-03T05:12:19.092Z,99093.72
2018-06-03T05:14:46.567Z,99096.40
2018-06-03T05:17:14.030Z,99086.20
2018-06-03T05:19:41.622Z,99090.59
2018-06-03T05:22:09.169Z,99093.53
2018-06-03T05:24:36.666Z,99096.84
2018-06-03T05:27:04.186Z,99089.34
2018-06-03T05:29:31.759Z,99093.59
2018-06-03T05:31:59.247Z,99092.51
2018-06-03T05:34:26.750Z,99094.21
2018-06-03T05:36:54.227Z,99095.63
2018-06-03T05:39:21.843Z,99097.37
2018-06-03T05:41:49.320Z,99105.14
2018-06-03T05:44:16.815Z,99103.43
2018-06-03T05:46:44.301Z,99102.00
2018-06-03T05:49:11.791Z,99109.39
2018-06-03T05:51:39.378Z,99102.50
2018-06-03T05:54:07.687Z,99111.48
2018-06-03T05:56:35.299Z,99117.58
2018-06-03T05:59:02.798Z,99110.98
2018-06-03T06:01:30.295Z,99110.39
2018-06-03T06:03:57.822Z,99110.89
2018-06-03T06:06:25.358Z,99107.64
2018-06-03T06:08:52.890Z,99108.53
2018-06-03T06:11:20.382Z,99108.91
2018-06-03T06:13:48.128Z,99108.95
2018-06-03T06:16:15.619Z,99100.50
2018-06-03T06:18:43.126Z,99097.97
2018-06-03T06:21:10.673Z,99104.33
2018-06-03T06:23:38.239Z,99100.42
2018-06-03T06:26:05.811Z,99102.50
2018-06-03T06:28:33.346Z,99102.22
2018-06-03T06:31:01.529Z,99105.50
2018-06-03T06:33:29.099Z,99100.48
2018-06-03T06:35:56.599Z,99102.28
2018-06-03T06:38:24.130Z,99098.70
2018-06-03T06:40:51.758Z,99106.28
2018-06-03T06:43:19.262Z,99109.19
2018-06-03T06:45:46.757Z,99105.64
2018-06-03T06:48:14.226Z,99102.89
2018-06-03T06:50:41.718Z,99101.78
2018-06-03T06:53:09.194Z,99094.56
2018-06-03T06:55:36.698Z,99097.12
2018-06-03T06:58:04.293Z,99106.14
2018-06-03T07:00:31.902Z,99100.32
2018-06-03T07:02:59.372Z,99109.80
2018-06-03T07:05:26.868Z,99114.48
2018-06-03T07:07:54.367Z,99121.56
2018-06-03T07:10:21.960Z,99116.48
2018-06-03T07:12:49.466Z,99112.58
2018-06-03T07:15:16.971Z,99122.94
2018-06-03T07:17:44.471Z,99126.56
2018-06-03T07:20:11.985Z,99129.08
2018-06-03T07:22:39.469Z,99135.75
2018-06-03T07:25:06.987Z,99134.92
2018-06-03T07:27:34.470Z,99128.27
2018-06-03T07:30:02.020Z,99125.80
2018-06-03T07:32:29.727Z,99130.80
2018-06-03T07:34:57.223Z,99132.09
2018-06-03T07:37:24.699Z,99136.21
2018-06-03T07:39:52.207Z,99135.83
2018-06-03T07:42:19.719Z,99131.56
2018-06-03T07:44:47.218Z,99135.03
2018-06-03T07:47:14.749Z,99135.30
2018-06-03T07:49:42.263Z,99133.86
2018-06-03T07:52:09.741Z,99134.97
2018-06-03T07:54:37.298Z,99134.77
2018-06-03T07:57:04.791Z,99142.41
2018-06-03T07:59:32.315Z,99135.34
2018-06-03T08:01:59.828Z,99140.22
2018-06-03T08:04:27.343Z,99138.13
2018-06-03T08:06:54.858Z,99133.52
2018-06-03T08:09:22.344Z,99138.22
2018-06-03T08:11:49.851Z,99141.65
2018-06-03T08:14:17.377Z,99138.64
2018-06-03T08:16:44.879Z,99141.52
2018-06-03T08:19:12.348Z,99140.09
2018-06-03T08:21:39.853Z,99141.38
2018-06-03T08:24:07.339Z,99138.50
2018-06-03T08:26:34.828Z,99141.17
2018-06-03T08:29:02.389Z,99140.19
2018-06-03T08:31:29.939Z,99141.67
2018-06-03T08:33:57.424Z,99138.52
2018-06-03T08:36:24.952Z,99132.81
2018-06-03T08:38:52.428Z,99136.02
2018-06-03T08:41:19.926Z,99129.44
2018-06-03T08:43:47.431Z,99132.50
2018-06-03T08:46:14.981Z,99135.33
2018-06-03T08:48:42.543Z,99133.70
2018-06-03T08:51:10.102Z,99136.77
2018-06-03T08:53:37.583Z,99141.13
2018-06-03T08:56:05.087Z,99136.49
2018-06-03T08:58:32.575Z,99132.49
2018-06-03T09:01:00.120Z,99133.64
2018-06-03T09:03:27.687Z,99134.89
2018-06-03T09:05:55.183Z,99134.89
2018-06-03T09:08:22.662Z,99137.98
2018-06-03T09:10:50.254Z,99134.33
2018-06-03T09:13:17.739Z,99138.83
2018-06-03T09:15:45.246Z,99141.52
2018-06-03T09:18:12.819Z,99136.67
2018-06-03T09:20:40.420Z,99142.05
2018-06-03T09:23:07.890Z,99140.47
2018-06-03T09:25:35.498Z,99133.02
2018-06-03T09:28:02.991Z,99132.98
2018-06-03T09:30:30.459Z,99134.67
2018-06-03T09:32:57.967Z,99131.77
2018-06-03T09:35:25.824Z,99134.53
2018-06-03T09:37:53.373Z,99128.67
2018-06-03T09:40:20.952Z,99120.27
2018-06-03T09:42:48.507Z,99122.42
2018-06-03T09:45:16.073Z,99117.25
2018-06-03T09:47:43.673Z,99128.48
2018-06-03T09:50:11.194Z,99126.40
2018-06-03T09:52:38.749Z,99126.84
2018-06-03T09:55:06.238Z,99120.03
2018-06-03T09:57:33.743Z,99121.67
2018-06-03T10:00:01.237Z,99123.86
2018-06-03T10:02:28.744Z,99121.50
2018-06-03T10:04:56.231Z,99111.16
2018-06-03T10:07:23.782Z,99108.14
2018-06-03T10:09:51.255Z,99106.34
2018-06-03T10:12:18.803Z,99099.05
2018-06-03T10:14:46.351Z,99102.88
2018-06-03T10:17:13.911Z,99104.76
2018-06-03T10:19:41.631Z,99105.25
2018-06-03T10:22:09.143Z,99099.82
2018-06-03T10:24:36.644Z,99099.08
2018-06-03T10:27:04.131Z,99105.78
2018-06-03T10:29:31.651Z,99105.20
2018-06-03T10:31:59.140Z,99100.34
2018-06-03T10:34:26.726Z,99094.84
2018-06-03T10:36:54.205Z,99087.39
2018-06-03T10:39:21.717Z,99095.36
2018-06-03T10:41:49.211Z,99094.03
2018-06-03T10:44:16.751Z,99095.78
2018-06-03T10:46:44.314Z,99093.38
2018-06-03T10:49:11.835Z,99087.43
2018-06-03T10:51:39.372Z,99085.95
2018-06-03T10:54:06.868Z,99086.95
2018-06-03T10:56:34.500Z,99085.14
2018-06-03T10:59:02.012Z,99079.44
2018-06-03T11:01:29.479Z,99082.88
2018-06-03T11:03:56.972Z,99077.45
2018-06-03T11:06:24.449Z,99078.16
2018-06-03T11:08:51.949Z,99074.52
2018-06-03T11:11:19.565Z,99072.54
2018-06-03T11:13:47.161Z,99076.96
2018-06-03T11:16:14.947Z,99069.72
2018-06-03T11:18:42.434Z,99069.52
2018-06-03T11:21:09.922Z,99068.81
2018-06-03T11:23:37.420Z,99066.59
2018-06-03T11:26:04.907Z,99070.81
2018-06-03T11:28:32.438Z,99060.47
2018-06-03T11:30:59.910Z,99058.53
2018-06-03T11:33:27.424Z,99063.64
2018-06-03T11:35:54.956Z,99059.52
2018-06-03T11:38:22.536Z,99060.56
2018-06-03T11:40:50.092Z,99058.13
2018-06-03T11:43:17.711Z,99059.08
2018-06-03T11:45:45.178Z,99065.95
2018-06-03T11:48:12.660Z,99070.66
2018-06-03T11:50:40.202Z,99067.88
2018-06-03T11:53:07.671Z,99068.53
2018-06-03T11:55:35.217Z,99065.84
2018-06-03T11:58:14.593Z,99064.66
2018-06-03T12:00:42.078Z,99066.80
2018-06-03T12:03:09.679Z,99063.77
2018-06-03T12:05:37.287Z,99067.19
2018-06-03T12:08:04.759Z,99058.57
2018-06-03T12:10:32.347Z,99056.80
2018-06-03T12:13:00.367Z,99062.27
2018-06-03T12:15:28.286Z,99054.31
2018-06-03T12:17:55.735Z,99059.48
2018-06-03T12:20:23.304Z,99057.56
2018-06-03T12:22:50.799Z,99056.36
2018-06-03T12:25:18.470Z,99059.27
2018-06-03T12:27:45.953Z,99054.47
2018-06-03T12:30:13.451Z,99055.49
2018-06-03T12:32:40.922Z,99046.08
2018-06-03T12:35:08.462Z,99051.19
2018-06-03T12:37:36.011Z,99055.69
2018-06-03T12:40:03.508Z,99047.66
2018-06-03T12:42:31.019Z,99050.55
2018-06-03T12:44:58.602Z,99051.59
2018-06-03T12:47:26.102Z,99054.53
2018-06-03T12:49:53.696Z,99042.08
2018-06-03T12:52:21.198Z,99038.05
2018-06-03T12:54:48.743Z,99040.95
2018-06-03T12:57:16.229Z,99035.75
2018-06-03T12:59:43.839Z,99034.02
2018-06-03T13:02:11.384Z,99033.06
2018-06-03T13:05:11.000Z,99033.89
2018-06-03T13:07:39.304Z,99036.55
2018-06-03T13:10:07.632Z,99032.34
2018-06-03T13:12:35.928Z,99031.28
2018-06-03T13:15:04.269Z,99029.99
2018-06-03T13:17:32.632Z,99034.02
2018-06-03T13:20:00.959Z,99020.72
2018-06-03T13:22:29.267Z,99024.39
2018-06-03T13:24:57.574Z,99021.83
2018-06-03T13:27:25.980Z,99023.25
2018-06-03T13:29:54.337Z,99015.90
2018-06-03T13:32:22.647Z,99014.11
2018-06-03T13:34:50.957Z,99008.59
2018-06-03T13:37:19.270Z,99004.66
2018-06-03T13:39:48.068Z,98997.09
2018-06-03T13:42:16.425Z,98995.98
2018-06-03T13:44:44.777Z,98990.44
2018-06-03T13:47:13.087Z,98988.31
2018-06-03T13:49:42.645Z,98989.36
2018-06-03T13:52:11.051Z,98991.03
2018-06-03T13:54:39.350Z,98990.34
2018-06-03T13:57:07.713Z,98982.25
2018-06-03T13:59:36.093Z,98977.47
2018-06-03T14:02:04.572Z,98980.20
2018-06-03T14:04:32.932Z,98980.24
2018-06-03T14:07:01.237Z,98974.09
2018-06-03T14:09:29.614Z,98973.36
2018-06-03T14:11:57.890Z,98969.73
2018-06-03T14:14:26.258Z,98958.40
2018-06-03T14:16:54.714Z,98962.33
2018-06-03T14:19:23.294Z,98968.11
2018-06-03T14:21:51.639Z,98966.33
2018-06-03T14:24:20.234Z,98970.09
2018-06-03T14:26:48.731Z,98966.07
2018-06-03T14:29:17.003Z,98962.63
2018-06-03T14:31:45.564Z,98963.61
2018-06-03T14:34:13.863Z,98960.59
2018-06-03T14:36:42.288Z,98961.78
2018-06-03T14:39:10.620Z,98960.95
2018-06-03T14:41:39.707Z,98955.20
2018-06-03T14:44:10.005Z,98951.85
2018-06-03T14:46:38.447Z,98948.99
2018-06-03T14:49:06.723Z,98945.03
2018-06-03T14:51:35.053Z,98935.83
2018-06-03T14:54:03.342Z,98931.94
2018-06-03T14:56:31.645Z,98930.00
2018-06-03T14:58:59.932Z,98931.70
2018-06-03T15:01:28.432Z,98921.41
2018-06-03T15:03:56.855Z,98925.11
2018-06-03T15:06:25.255Z,98918.31
2018-06-03T15:08:53.567Z,98916.87
2018-06-03T15:11:21.963Z,98918.32
2018-06-03T15:13:50.358Z,98917.05
2018-06-03T15:16:18.818Z,98916.53
2018-06-03T15:18:47.470Z,98914.23
2018-06-03T15:21:15.897Z,98912.02
2018-06-03T15:23:44.909Z,98918.09
2018-06-03T15:26:13.294Z,98918.48
2018-06-03T15:28:41.633Z,98916.28
2018-06-03T15:31:09.928Z,98910.97
2018-06-03T15:33:38.299Z,98909.30
2018-06-03T15:36:07.784Z,98903.00
2018-06-03T15:38:36.460Z,98910.42
2018-06-03T15:41:04.806Z,98903.38
2018-06-03T15:43:33.155Z,98899.86
2018-06-03T15:46:01.455Z,98896.59
2018-06-03T15:48:29.842Z,98892.12
2018-06-03T15:50:58.169Z,98889.83
2018-06-03T15:53:26.497Z,98891.52
2018-06-03T15:55:54.893Z,98882.13
2018-06-03T15:58:23.198Z,98892.72
2018-06-03T16:00:51.580Z,98878.45
2018-06-03T16:03:19.855Z,98886.73
2018-06-03T16:05:48.180Z,98887.52
2018-06-03T16:08:16.449Z,98894.09
2018-06-03T16:10:45.333Z,98888.83
2018-06-03T16:13:13.732Z,98894.14
2018-06-03T16:15:42.132Z,98887.58
2018-06-03T16:18:10.422Z,98888.73
2018-06-03T16:20:38.736Z,98883.94
2018-06-03T16:23:07.012Z,98883.96
2018-06-03T16:25:35.312Z,98891.09
2018-06-03T16:28:03.628Z,98883.46
2018-06-03T16:30:38.379Z,98875.83
2018-06-03T16:33:06.706Z,98872.98
2018-06-03T16:35:35.188Z,98879.68
2018-06-03T16:38:03.525Z,98881.22
2018-06-03T16:40:31.970Z,98879.57
2018-06-03T16:43:00.247Z,98882.09
2018-06-03T16:45:28.620Z,98874.47
2018-06-03T16:47:56.890Z,98873.84
2018-06-03T16:50:25.204Z,98876.25
2018-06-03T16:52:53.571Z,98874.08
2018-06-03T16:55:21.855Z,98869.36
2018-06-03T16:57:50.143Z,98867.67
2018-06-03T17:00:18.437Z,98869.87
2018-06-03T17:02:46.703Z,98861.11
2018-06-03T17:05:15.050Z,98855.56
2018-06-03T17:07:43.412Z,98859.73
2018-06-03T17:10:11.688Z,98854.33
2018-06-03T17:12:41.515Z,98853.36
2018-06-03T17:15:09.945Z,98854.72
2018-06-03T17:17:38.383Z,98859.28
2018-06-03T17:20:06.832Z,98847.20
2018-06-03T17:22:35.418Z,98848.63
2018-06-03T17:25:03.881Z,98844.35
2018-06-03T17:27:32.195Z,98850.04
2018-06-03T17:30:00.707Z,98844.45
2018-06-03T17:32:29.011Z,98843.73
2018-06-03T17:34:57.308Z,98843.70
2018-06-03T17:37:25.625Z,98841.02
2018-06-03T17:39:53.923Z,98834.94
2018-06-03T17:42:22.318Z,98834.84
2018-06-03T17:44:50.606Z,98832.33
2018-06-03T17:47:18.918Z,98830.13
2018-06-03T17:49:48.543Z,98827.19
2018-06-03T17:52:16.851Z,98832.31
2018-06-03T17:54:45.127Z,98826.57
2018-06-03T17:57:13.638Z,98825.23
2018-06-03T17:59:41.931Z,98823.23
2018-06-03T18:02:10.211Z,98822.38
2018-06-03T18:04:38.532Z,98829.69
2018-06-03T18:07:07.065Z,98831.98
2018-06-03T18:09:35.591Z,98819.00
2018-06-03T18:12:03.895Z,98823.91
2018-06-03T18:14:32.274Z,98814.72
2018-06-03T18:17:00.743Z,98817.15
2018-06-03T18:19:29.074Z,98819.41
2018-06-03T18:21:57.956Z,98821.95
2018-06-03T18:24:26.523Z,98820.31
2018-06-03T18:26:55.491Z,98825.92
2018-06-03T18:29:23.948Z,98827.59
2018-06-03T18:31:53.330Z,98824.98
2018-06-03T18:34:21.813Z,98817.73
2018-06-03T18:36:50.126Z,98820.17
2018-06-03T18:39:18.556Z,98820.02
2018-06-03T18:44:14.454Z,98815.41
2018-06-03T18:46:42.885Z,98812.68
2018-06-03T18:49:11.476Z,98814.16
2018-06-03T18:51:40.168Z,98815.31
2018-06-03T18:54:08.634Z,98814.55
2018-06-03T18:56:36.998Z,98808.02
2018-06-03T18:59:05.335Z,98807.06
2018-06-03T19:01:33.640Z,98806.73
2018-06-03T19:04:02.170Z,98810.37
2018-06-03T19:06:30.676Z,98814.47
2018-06-03T19:08:59.256Z,98814.02
2018-06-03T19:11:27.562Z,98814.53
2018-06-03T19:13:56.195Z,98821.18
2018-06-03T19:16:24.928Z,98810.16
2018-06-03T19:18:53.876Z,98823.89
2018-06-03T19:21:22.641Z,98813.37
2018-06-03T19:23:51.222Z,98817.66
2018-06-03T19:26:19.910Z,98810.56
2018-06-03T19:28:48.334Z,98819.23
2018-06-03T19:31:16.622Z,98818.59
2018-06-03T19:33:45.378Z,98814.47
2018-06-03T19:36:13.643Z,98813.02
2018-06-03T19:38:41.950Z,98824.70
2018-06-03T19:41:10.403Z,98817.81
2018-06-03T19:43:39.209Z,98825.75
2018-06-03T19:46:07.708Z,98823.52
2018-06-03T19:48:36.531Z,98827.96
2018-06-03T19:51:05.181Z,98827.34
2018-06-03T19:53:33.866Z,98822.98
2018-06-03T19:56:02.219Z,98836.91
2018-06-03T19:58:30.815Z,98834.72
2018-06-03T20:00:59.106Z,98837.95
2018-06-03T20:03:27.419Z,98841.58
2018-06-03T20:05:55.728Z,98841.03
2018-06-03T20:08:24.183Z,98838.47
2018-06-03T20:10:52.542Z,98836.47
2018-06-03T20:13:20.855Z,98843.71
2018-06-03T20:15:49.273Z,98843.42
2018-06-03T20:18:17.571Z,98839.05
2018-06-03T20:20:45.999Z,98841.46
2018-06-03T20:23:14.303Z,98842.37
2018-06-03T20:25:42.610Z,98836.53
2018-06-03T20:28:10.918Z,98840.28
2018-06-03T20:30:39.278Z,98834.53
2018-06-03T20:33:07.975Z,98837.13
2018-06-03T20:35:36.278Z,98839.67
2018-06-03T20:38:04.583Z,98836.20
2018-06-03T20:40:32.898Z,98839.20
2018-06-03T20:43:01.291Z,98837.81
2018-06-03T20:45:29.572Z,98835.84
2018-06-03T20:47:57.857Z,98844.44
2018-06-03T20:50:26.440Z,98838.24
2018-06-03T20:52:54.724Z,98842.28
2018-06-03T20:55:23.106Z,98840.18
2018-06-03T20:57:51.423Z,98841.92
2018-06-03T21:00:19.742Z,98841.63
2018-06-03T21:02:48.111Z,98841.69
2018-06-03T21:05:16.432Z,98844.38
2018-06-03T21:07:44.714Z,98836.30
2018-06-03T21:10:13.014Z,98844.66
2018-06-03T21:12:41.306Z,98843.14
2018-06-03T21:15:09.615Z,98844.97
2018-06-03T21:17:37.898Z,98843.97
2018-06-03T21:20:06.218Z,98845.70
2018-06-03T21:22:34.522Z,98846.87
2018-06-03T21:25:02.810Z,98847.74
2018-06-03T21:27:31.107Z,98845.62
2018-06-03T21:29:59.468Z,98846.13
2018-06-03T21:32:27.814Z,98848.29
2018-06-03T21:34:56.138Z,98844.03
2018-06-03T21:37:24.443Z,98845.56
2018-06-03T21:39:52.755Z,98838.89
2018-06-03T21:42:21.135Z,98848.72
2018-06-03T21:44:49.439Z,98846.54
2018-06-03T21:47:17.883Z,98850.09
2018-06-03T21:49:46.208Z,98846.94
2018-06-03T21:52:14.639Z,98849.98
2018-06-03T21:54:42.950Z,98844.95
2018-06-03T21:57:12.306Z,98845.28
2018-06-03T21:59:40.699Z,98843.92
2018-06-03T22:02:09.101Z,98848.65
2018-06-03T22:04:37.406Z,98850.97
2018-06-03T22:07:05.819Z,98846.13
2018-06-03T22:09:34.097Z,98848.44
2018-06-03T22:12:02.392Z,98846.63
2018-06-03T22:14:30.738Z,98848.53
2018-06-03T22:16:59.042Z,98850.07
2018-06-03T22:20:01.060Z,98848.70
2018-06-03T22:22:57.642Z,98847.52
2018-06-03T22:25:26.995Z,98842.34
2018-06-03T22:27:55.284Z,98835.77
2018-06-03T22:30:23.687Z,98838.63
2018-06-03T22:32:52.102Z,98837.30
2018-06-03T22:35:20.422Z,98834.08
2018-06-03T22:37:48.790Z,98838.28
2018-06-03T22:40:17.094Z,98843.34
2018-06-03T22:42:45.378Z,98838.62
2018-06-03T22:45:13.671Z,98838.97
2018-06-03T22:47:41.947Z,98838.64
2018-06-03T22:50:10.245Z,98839.30
2018-06-03T22:52:38.534Z,98839.95
2018-06-03T22:55:06.818Z,98835.94
2018-06-03T22:57:45.134Z,98835.11
2018-06-03T23:00:19.579Z,98826.19
2018-06-03T23:03:20.993Z,98835.75
2018-06-03T23:05:49.296Z,98827.19
2018-06-03T23:08:17.635Z,98825.52
2018-06-03T23:10:45.947Z,98825.34
2018-06-03T23:13:15.370Z,98823.69
2018-06-03T23:15:43.719Z,98822.81
2018-06-03T23:18:12.008Z,98820.80
2018-06-03T23:20:40.381Z,98823.48
2018-06-03T23:23:08.654Z,98823.77
2018-06-03T23:25:36.961Z,98813.15
2018-06-03T23:28:05.389Z,98809.63
2018-06-03T23:30:33.689Z,98808.98
2018-06-03T23:33:02.031Z,98802.59
2018-06-03T23:35:30.374Z,98802.59
2018-06-03T23:37:58.663Z,98801.76
2018-06-03T23:40:26.935Z,98801.25
2018-06-03T23:42:55.243Z,98792.57
2018-06-03T23:45:23.588Z,98793.50
2018-06-03T23:47:51.889Z,98797.11
2018-06-03T23:50:20.202Z,98793.80
2018-06-03T23:52:48.539Z,98798.54
2018-06-03T23:55:16.897Z,98793.84
2018-06-03T23:57:45.262Z,98794.51
